sensor_id;sensor_type;location;lat;lon;timestamp;P1;durP1;ratioP1;P2;durP2;ratioP2
18929;SDS011;43305;52.186;5.598;2023-03-01T00:01:10;11.48;;;5.97;;
18929;SDS011;43305;52.186;5.598;2023-03-01T00:03:40;10.93;;;5.90;;
18929;SDS011;43305;52.186;5.598;2023-03-01T00:06:07;11.40;;;5.93;;
18929;SDS011;43305;52.186;5.598;2023-03-01T00:08:34;12.07;;;6.03;;
18929;SDS011;43305;52.186;5.598;2023-03-01T00:11:03;12.70;;;5.88;;
18929;SDS011;43305;52.186;5.598;2023-03-01T00:13:33;12.63;;;5.95;;
18929;SDS011;43305;52.186;5.598;2023-03-01T00:16:01;11.77;;;5.43;;
18929;SDS011;43305;52.186;5.598;2023-03-01T00:18:30;12.30;;;6.07;;
18929;SDS011;43305;52.186;5.598;2023-03-01T00:20:58;13.88;;;6.07;;
18929;SDS011;43305;52.186;5.598;2023-03-01T00:23:25;11.00;;;6.20;;
18929;SDS011;43305;52.186;5.598;2023-03-01T00:25:52;11.35;;;5.68;;
18929;SDS011;43305;52.186;5.598;2023-03-01T00:28:20;12.55;;;6.43;;
18929;SDS011;43305;52.186;5.598;2023-03-01T00:30:47;13.02;;;6.32;;
18929;SDS011;43305;52.186;5.598;2023-03-01T00:33:16;11.18;;;6.05;;
18929;SDS011;43305;52.186;5.598;2023-03-01T00:35:45;12.68;;;6.15;;
18929;SDS011;43305;52.186;5.598;2023-03-01T00:38:12;13.50;;;6.60;;
18929;SDS011;43305;52.186;5.598;2023-03-01T00:40:39;12.70;;;6.20;;
18929;SDS011;43305;52.186;5.598;2023-03-01T00:43:09;13.40;;;6.20;;
18929;SDS011;43305;52.186;5.598;2023-03-01T00:45:36;11.13;;;6.22;;
18929;SDS011;43305;52.186;5.598;2023-03-01T00:48:03;11.15;;;5.60;;
18929;SDS011;43305;52.186;5.598;2023-03-01T00:50:31;11.32;;;5.88;;
18929;SDS011;43305;52.186;5.598;2023-03-01T00:52:59;12.15;;;6.28;;
18929;SDS011;43305;52.186;5.598;2023-03-01T00:55:26;10.90;;;6.05;;
18929;SDS011;43305;52.186;5.598;2023-03-01T00:57:53;12.27;;;6.05;;
18929;SDS011;43305;52.186;5.598;2023-03-01T01:00:20;12.23;;;5.32;;
18929;SDS011;43305;52.186;5.598;2023-03-01T01:02:51;8.30;;;4.72;;
18929;SDS011;43305;52.186;5.598;2023-03-01T01:05:20;10.63;;;5.15;;
18929;SDS011;43305;52.186;5.598;2023-03-01T01:07:47;8.68;;;5.07;;
18929;SDS011;43305;52.186;5.598;2023-03-01T01:10:22;10.10;;;5.40;;
18929;SDS011;43305;52.186;5.598;2023-03-01T01:12:49;9.18;;;5.13;;
18929;SDS011;43305;52.186;5.598;2023-03-01T01:15:16;9.05;;;5.45;;
18929;SDS011;43305;52.186;5.598;2023-03-01T01:17:43;9.80;;;5.15;;
18929;SDS011;43305;52.186;5.598;2023-03-01T01:20:10;8.85;;;4.93;;
18929;SDS011;43305;52.186;5.598;2023-03-01T01:22:38;8.68;;;4.90;;
18929;SDS011;43305;52.186;5.598;2023-03-01T01:25:05;9.55;;;5.40;;
18929;SDS011;43305;52.186;5.598;2023-03-01T01:27:35;10.80;;;5.60;;
18929;SDS011;43305;52.186;5.598;2023-03-01T01:30:03;8.63;;;5.22;;
18929;SDS011;43305;52.186;5.598;2023-03-01T01:32:30;8.93;;;4.93;;
18929;SDS011;43305;52.186;5.598;2023-03-01T01:34:57;10.48;;;5.20;;
18929;SDS011;43305;52.186;5.598;2023-03-01T01:37:25;9.80;;;5.60;;
18929;SDS011;43305;52.186;5.598;2023-03-01T01:39:56;11.95;;;5.43;;
18929;SDS011;43305;52.186;5.598;2023-03-01T01:42:23;10.85;;;5.50;;
18929;SDS011;43305;52.186;5.598;2023-03-01T01:47:57;11.93;;;5.65;;
18929;SDS011;43305;52.186;5.598;2023-03-01T01:50:29;11.88;;;6.22;;
18929;SDS011;43305;52.186;5.598;2023-03-01T01:53:02;9.20;;;5.43;;
18929;SDS011;43305;52.186;5.598;2023-03-01T01:55:33;12.63;;;5.45;;
18929;SDS011;43305;52.186;5.598;2023-03-01T01:58:02;10.32;;;5.95;;
18929;SDS011;43305;52.186;5.598;2023-03-01T02:00:33;10.95;;;5.55;;
18929;SDS011;43305;52.186;5.598;2023-03-01T02:03:01;9.35;;;5.65;;
18929;SDS011;43305;52.186;5.598;2023-03-01T02:05:33;9.05;;;6.03;;
18929;SDS011;43305;52.186;5.598;2023-03-01T02:08:04;8.95;;;5.80;;
18929;SDS011;43305;52.186;5.598;2023-03-01T02:10:32;10.45;;;6.05;;
18929;SDS011;43305;52.186;5.598;2023-03-01T02:13:00;10.75;;;6.13;;
18929;SDS011;43305;52.186;5.598;2023-03-01T02:15:31;11.10;;;5.95;;
18929;SDS011;43305;52.186;5.598;2023-03-01T02:18:00;9.77;;;5.82;;
18929;SDS011;43305;52.186;5.598;2023-03-01T02:20:31;12.13;;;6.18;;
18929;SDS011;43305;52.186;5.598;2023-03-01T02:23:01;12.20;;;6.47;;
18929;SDS011;43305;52.186;5.598;2023-03-01T02:25:35;11.95;;;5.75;;
18929;SDS011;43305;52.186;5.598;2023-03-01T02:28:08;11.23;;;6.57;;
18929;SDS011;43305;52.186;5.598;2023-03-01T02:30:48;9.77;;;5.88;;
18929;SDS011;43305;52.186;5.598;2023-03-01T02:33:34;10.50;;;6.18;;
18929;SDS011;43305;52.186;5.598;2023-03-01T02:36:03;9.70;;;5.82;;
18929;SDS011;43305;52.186;5.598;2023-03-01T02:38:34;11.63;;;6.45;;
18929;SDS011;43305;52.186;5.598;2023-03-01T02:41:01;11.10;;;6.05;;
18929;SDS011;43305;52.186;5.598;2023-03-01T02:43:32;10.75;;;6.40;;
18929;SDS011;43305;52.186;5.598;2023-03-01T02:46:02;12.43;;;5.90;;
18929;SDS011;43305;52.186;5.598;2023-03-01T02:48:39;9.50;;;5.97;;
18929;SDS011;43305;52.186;5.598;2023-03-01T02:51:09;11.20;;;6.30;;
18929;SDS011;43305;52.186;5.598;2023-03-01T02:53:46;10.30;;;6.38;;
18929;SDS011;43305;52.186;5.598;2023-03-01T02:56:21;11.82;;;6.20;;
18929;SDS011;43305;52.186;5.598;2023-03-01T02:58:49;10.05;;;5.95;;
18929;SDS011;43305;52.186;5.598;2023-03-01T03:01:17;10.90;;;6.57;;
18929;SDS011;43305;52.186;5.598;2023-03-01T03:03:47;13.15;;;6.68;;
18929;SDS011;43305;52.186;5.598;2023-03-01T03:06:15;10.90;;;6.60;;
18929;SDS011;43305;52.186;5.598;2023-03-01T03:08:41;12.77;;;6.97;;
18929;SDS011;43305;52.186;5.598;2023-03-01T03:11:09;12.93;;;7.10;;
18929;SDS011;43305;52.186;5.598;2023-03-01T03:13:35;13.00;;;6.43;;
18929;SDS011;43305;52.186;5.598;2023-03-01T03:16:05;14.05;;;6.80;;
18929;SDS011;43305;52.186;5.598;2023-03-01T03:18:34;11.95;;;6.38;;
18929;SDS011;43305;52.186;5.598;2023-03-01T03:21:01;11.48;;;6.22;;
18929;SDS011;43305;52.186;5.598;2023-03-01T03:23:28;11.75;;;6.28;;
18929;SDS011;43305;52.186;5.598;2023-03-01T03:25:55;11.95;;;6.47;;
18929;SDS011;43305;52.186;5.598;2023-03-01T03:28:22;11.90;;;6.40;;
18929;SDS011;43305;52.186;5.598;2023-03-01T03:30:48;11.95;;;6.13;;
18929;SDS011;43305;52.186;5.598;2023-03-01T03:33:17;10.00;;;6.00;;
18929;SDS011;43305;52.186;5.598;2023-03-01T03:35:45;13.32;;;6.38;;
18929;SDS011;43305;52.186;5.598;2023-03-01T03:38:14;11.50;;;6.70;;
18929;SDS011;43305;52.186;5.598;2023-03-01T03:40:44;10.82;;;6.13;;
18929;SDS011;43305;52.186;5.598;2023-03-01T03:43:13;12.05;;;6.63;;
18929;SDS011;43305;52.186;5.598;2023-03-01T03:45:40;11.48;;;6.35;;
18929;SDS011;43305;52.186;5.598;2023-03-01T03:48:11;11.90;;;6.65;;
18929;SDS011;43305;52.186;5.598;2023-03-01T03:50:40;11.93;;;6.63;;
18929;SDS011;43305;52.186;5.598;2023-03-01T03:53:08;10.52;;;5.90;;
18929;SDS011;43305;52.186;5.598;2023-03-01T03:55:36;14.02;;;6.53;;
18929;SDS011;43305;52.186;5.598;2023-03-01T03:58:04;13.05;;;6.40;;
18929;SDS011;43305;52.186;5.598;2023-03-01T04:00:35;11.02;;;6.25;;
18929;SDS011;43305;52.186;5.598;2023-03-01T04:03:03;15.00;;;6.88;;
18929;SDS011;43305;52.186;5.598;2023-03-01T04:05:31;11.07;;;6.45;;
18929;SDS011;43305;52.186;5.598;2023-03-01T04:07:59;10.57;;;6.35;;
18929;SDS011;43305;52.186;5.598;2023-03-01T04:10:33;11.75;;;6.18;;
18929;SDS011;43305;52.186;5.598;2023-03-01T04:13:02;12.00;;;6.47;;
18929;SDS011;43305;52.186;5.598;2023-03-01T04:15:29;12.48;;;6.65;;
18929;SDS011;43305;52.186;5.598;2023-03-01T04:17:57;13.68;;;6.80;;
18929;SDS011;43305;52.186;5.598;2023-03-01T04:20:26;12.30;;;6.38;;
18929;SDS011;43305;52.186;5.598;2023-03-01T04:22:56;14.10;;;7.15;;
18929;SDS011;43305;52.186;5.598;2023-03-01T04:25:26;11.85;;;6.85;;
18929;SDS011;43305;52.186;5.598;2023-03-01T04:27:53;13.65;;;6.43;;
18929;SDS011;43305;52.186;5.598;2023-03-01T04:30:20;12.85;;;6.55;;
18929;SDS011;43305;52.186;5.598;2023-03-01T04:32:50;12.02;;;6.63;;
18929;SDS011;43305;52.186;5.598;2023-03-01T04:35:17;10.52;;;5.93;;
18929;SDS011;43305;52.186;5.598;2023-03-01T04:37:45;12.10;;;6.38;;
18929;SDS011;43305;52.186;5.598;2023-03-01T04:40:12;10.95;;;6.50;;
18929;SDS011;43305;52.186;5.598;2023-03-01T04:42:42;11.50;;;6.40;;
18929;SDS011;43305;52.186;5.598;2023-03-01T04:45:10;13.02;;;6.70;;
18929;SDS011;43305;52.186;5.598;2023-03-01T04:47:39;14.32;;;6.82;;
18929;SDS011;43305;52.186;5.598;2023-03-01T04:50:08;12.88;;;7.18;;
18929;SDS011;43305;52.186;5.598;2023-03-01T04:52:36;17.08;;;7.50;;
18929;SDS011;43305;52.186;5.598;2023-03-01T04:55:03;14.57;;;7.80;;
18929;SDS011;43305;52.186;5.598;2023-03-01T04:57:32;16.50;;;8.10;;
18929;SDS011;43305;52.186;5.598;2023-03-01T05:00:00;19.40;;;8.15;;
18929;SDS011;43305;52.186;5.598;2023-03-01T05:02:31;15.93;;;7.88;;
18929;SDS011;43305;52.186;5.598;2023-03-01T05:04:58;19.70;;;8.30;;
18929;SDS011;43305;52.186;5.598;2023-03-01T05:07:25;14.52;;;7.55;;
18929;SDS011;43305;52.186;5.598;2023-03-01T05:09:52;18.85;;;8.40;;
18929;SDS011;43305;52.186;5.598;2023-03-01T05:12:19;13.68;;;6.97;;
18929;SDS011;43305;52.186;5.598;2023-03-01T05:14:46;15.43;;;7.25;;
18929;SDS011;43305;52.186;5.598;2023-03-01T05:17:17;12.25;;;6.93;;
18929;SDS011;43305;52.186;5.598;2023-03-01T05:19:47;15.98;;;7.47;;
18929;SDS011;43305;52.186;5.598;2023-03-01T05:22:17;17.40;;;7.40;;
18929;SDS011;43305;52.186;5.598;2023-03-01T05:24:45;13.20;;;6.75;;
18929;SDS011;43305;52.186;5.598;2023-03-01T05:27:12;14.57;;;6.65;;
18929;SDS011;43305;52.186;5.598;2023-03-01T05:29:39;14.55;;;6.90;;
18929;SDS011;43305;52.186;5.598;2023-03-01T05:32:05;13.63;;;6.80;;
18929;SDS011;43305;52.186;5.598;2023-03-01T05:34:41;13.18;;;6.65;;
18929;SDS011;43305;52.186;5.598;2023-03-01T05:37:09;13.07;;;6.72;;
18929;SDS011;43305;52.186;5.598;2023-03-01T05:39:36;15.15;;;6.80;;
18929;SDS011;43305;52.186;5.598;2023-03-01T05:42:03;13.15;;;6.57;;
18929;SDS011;43305;52.186;5.598;2023-03-01T05:44:30;13.20;;;6.65;;
18929;SDS011;43305;52.186;5.598;2023-03-01T05:46:57;13.43;;;6.65;;
18929;SDS011;43305;52.186;5.598;2023-03-01T05:49:24;15.82;;;7.30;;
18929;SDS011;43305;52.186;5.598;2023-03-01T05:51:52;12.13;;;6.78;;
18929;SDS011;43305;52.186;5.598;2023-03-01T05:54:20;11.70;;;5.88;;
18929;SDS011;43305;52.186;5.598;2023-03-01T05:56:47;12.30;;;6.55;;
18929;SDS011;43305;52.186;5.598;2023-03-01T05:59:15;14.95;;;6.45;;
18929;SDS011;43305;52.186;5.598;2023-03-01T06:01:42;12.50;;;6.78;;
18929;SDS011;43305;52.186;5.598;2023-03-01T06:04:09;11.88;;;6.90;;
18929;SDS011;43305;52.186;5.598;2023-03-01T06:06:36;11.82;;;6.88;;
18929;SDS011;43305;52.186;5.598;2023-03-01T06:09:04;14.23;;;7.00;;
18929;SDS011;43305;52.186;5.598;2023-03-01T06:11:35;11.98;;;6.68;;
18929;SDS011;43305;52.186;5.598;2023-03-01T06:14:02;13.82;;;6.68;;
18929;SDS011;43305;52.186;5.598;2023-03-01T06:16:31;13.98;;;6.85;;
18929;SDS011;43305;52.186;5.598;2023-03-01T06:18:58;11.45;;;6.65;;
18929;SDS011;43305;52.186;5.598;2023-03-01T06:21:25;14.10;;;7.82;;
18929;SDS011;43305;52.186;5.598;2023-03-01T06:23:52;14.50;;;7.35;;
18929;SDS011;43305;52.186;5.598;2023-03-01T06:26:20;14.05;;;6.97;;
18929;SDS011;43305;52.186;5.598;2023-03-01T06:28:47;15.68;;;7.35;;
18929;SDS011;43305;52.186;5.598;2023-03-01T06:31:16;14.10;;;7.45;;
18929;SDS011;43305;52.186;5.598;2023-03-01T06:33:43;13.23;;;7.10;;
18929;SDS011;43305;52.186;5.598;2023-03-01T06:36:10;13.38;;;7.10;;
18929;SDS011;43305;52.186;5.598;2023-03-01T06:38:37;14.15;;;6.97;;
18929;SDS011;43305;52.186;5.598;2023-03-01T06:41:05;12.50;;;6.97;;
18929;SDS011;43305;52.186;5.598;2023-03-01T06:43:37;14.10;;;6.85;;
18929;SDS011;43305;52.186;5.598;2023-03-01T06:46:04;15.23;;;7.53;;
18929;SDS011;43305;52.186;5.598;2023-03-01T06:48:32;15.40;;;7.65;;
18929;SDS011;43305;52.186;5.598;2023-03-01T06:50:59;14.50;;;7.47;;
18929;SDS011;43305;52.186;5.598;2023-03-01T06:53:26;15.68;;;7.78;;
18929;SDS011;43305;52.186;5.598;2023-03-01T06:55:54;14.13;;;7.18;;
18929;SDS011;43305;52.186;5.598;2023-03-01T06:58:21;12.48;;;6.72;;
18929;SDS011;43305;52.186;5.598;2023-03-01T07:00:49;14.30;;;6.85;;
18929;SDS011;43305;52.186;5.598;2023-03-01T07:03:16;14.52;;;7.45;;
18929;SDS011;43305;52.186;5.598;2023-03-01T07:05:48;13.65;;;6.78;;
18929;SDS011;43305;52.186;5.598;2023-03-01T07:08:16;14.07;;;6.95;;
18929;SDS011;43305;52.186;5.598;2023-03-01T07:10:43;13.93;;;7.13;;
18929;SDS011;43305;52.186;5.598;2023-03-01T07:13:10;13.70;;;7.18;;
18929;SDS011;43305;52.186;5.598;2023-03-01T07:15:37;17.10;;;8.05;;
18929;SDS011;43305;52.186;5.598;2023-03-01T07:18:10;13.63;;;7.43;;
18929;SDS011;43305;52.186;5.598;2023-03-01T07:20:37;16.38;;;7.90;;
18929;SDS011;43305;52.186;5.598;2023-03-01T07:23:05;18.55;;;7.88;;
18929;SDS011;43305;52.186;5.598;2023-03-01T07:25:32;17.38;;;8.38;;
18929;SDS011;43305;52.186;5.598;2023-03-01T07:27:59;18.88;;;9.38;;
18929;SDS011;43305;52.186;5.598;2023-03-01T07:30:26;15.63;;;8.93;;
18929;SDS011;43305;52.186;5.598;2023-03-01T07:32:53;15.82;;;8.30;;
18929;SDS011;43305;52.186;5.598;2023-03-01T07:35:22;17.23;;;9.25;;
18929;SDS011;43305;52.186;5.598;2023-03-01T07:37:49;15.50;;;9.38;;
18929;SDS011;43305;52.186;5.598;2023-03-01T07:40:16;26.75;;;9.48;;
18929;SDS011;43305;52.186;5.598;2023-03-01T07:42:45;19.42;;;9.63;;
18929;SDS011;43305;52.186;5.598;2023-03-01T07:45:12;19.85;;;9.43;;
18929;SDS011;43305;52.186;5.598;2023-03-01T07:47:39;17.90;;;9.70;;
18929;SDS011;43305;52.186;5.598;2023-03-01T07:50:06;21.33;;;9.00;;
18929;SDS011;43305;52.186;5.598;2023-03-01T07:52:36;20.45;;;9.10;;
18929;SDS011;43305;52.186;5.598;2023-03-01T07:55:03;15.98;;;8.43;;
18929;SDS011;43305;52.186;5.598;2023-03-01T07:57:30;17.80;;;9.25;;
18929;SDS011;43305;52.186;5.598;2023-03-01T07:59:57;22.45;;;9.55;;
18929;SDS011;43305;52.186;5.598;2023-03-01T08:02:24;23.77;;;10.15;;
18929;SDS011;43305;52.186;5.598;2023-03-01T08:04:51;26.67;;;11.18;;
18929;SDS011;43305;52.186;5.598;2023-03-01T08:07:21;24.92;;;12.25;;
18929;SDS011;43305;52.186;5.598;2023-03-01T08:09:49;24.20;;;11.60;;
18929;SDS011;43305;52.186;5.598;2023-03-01T08:12:16;23.33;;;10.88;;
18929;SDS011;43305;52.186;5.598;2023-03-01T08:14:43;19.52;;;10.20;;
18929;SDS011;43305;52.186;5.598;2023-03-01T08:17:17;19.45;;;10.10;;
18929;SDS011;43305;52.186;5.598;2023-03-01T08:19:46;18.85;;;10.55;;
18929;SDS011;43305;52.186;5.598;2023-03-01T08:22:13;18.92;;;9.55;;
18929;SDS011;43305;52.186;5.598;2023-03-01T08:24:52;19.73;;;9.20;;
18929;SDS011;43305;52.186;5.598;2023-03-01T08:27:20;16.95;;;8.57;;
18929;SDS011;43305;52.186;5.598;2023-03-01T08:29:47;15.88;;;8.23;;
18929;SDS011;43305;52.186;5.598;2023-03-01T08:32:14;15.38;;;7.68;;
18929;SDS011;43305;52.186;5.598;2023-03-01T08:34:41;13.35;;;7.47;;
18929;SDS011;43305;52.186;5.598;2023-03-01T08:37:08;14.20;;;6.75;;
18929;SDS011;43305;52.186;5.598;2023-03-01T08:39:35;11.70;;;6.57;;
18929;SDS011;43305;52.186;5.598;2023-03-01T08:42:04;11.88;;;6.32;;
18929;SDS011;43305;52.186;5.598;2023-03-01T08:44:37;12.15;;;6.25;;
18929;SDS011;43305;52.186;5.598;2023-03-01T08:47:03;16.02;;;6.15;;
18929;SDS011;43305;52.186;5.598;2023-03-01T08:49:30;11.35;;;6.28;;
18929;SDS011;43305;52.186;5.598;2023-03-01T08:51:58;11.00;;;5.38;;
18929;SDS011;43305;52.186;5.598;2023-03-01T08:54:26;8.95;;;5.53;;
18929;SDS011;43305;52.186;5.598;2023-03-01T08:56:53;11.75;;;5.70;;
18929;SDS011;43305;52.186;5.598;2023-03-01T08:59:22;10.63;;;5.18;;
18929;SDS011;43305;52.186;5.598;2023-03-01T09:01:49;9.07;;;5.25;;
18929;SDS011;43305;52.186;5.598;2023-03-01T09:04:16;7.97;;;4.80;;
18929;SDS011;43305;52.186;5.598;2023-03-01T09:06:43;8.77;;;4.18;;
18929;SDS011;43305;52.186;5.598;2023-03-01T09:09:12;8.95;;;4.60;;
18929;SDS011;43305;52.186;5.598;2023-03-01T09:11:41;8.57;;;4.40;;
18929;SDS011;43305;52.186;5.598;2023-03-01T09:14:08;10.50;;;4.57;;
18929;SDS011;43305;52.186;5.598;2023-03-01T09:16:36;6.32;;;3.67;;
18929;SDS011;43305;52.186;5.598;2023-03-01T09:19:04;9.05;;;3.75;;
18929;SDS011;43305;52.186;5.598;2023-03-01T09:21:34;11.43;;;3.90;;
18929;SDS011;43305;52.186;5.598;2023-03-01T09:24:00;6.95;;;3.90;;
18929;SDS011;43305;52.186;5.598;2023-03-01T09:26:27;7.18;;;3.72;;
18929;SDS011;43305;52.186;5.598;2023-03-01T09:28:55;7.28;;;3.47;;
18929;SDS011;43305;52.186;5.598;2023-03-01T09:31:23;6.97;;;3.42;;
18929;SDS011;43305;52.186;5.598;2023-03-01T09:33:52;5.88;;;3.38;;
18929;SDS011;43305;52.186;5.598;2023-03-01T09:36:20;7.93;;;3.50;;
18929;SDS011;43305;52.186;5.598;2023-03-01T09:38:50;7.82;;;3.70;;
18929;SDS011;43305;52.186;5.598;2023-03-01T09:41:32;8.05;;;3.40;;
18929;SDS011;43305;52.186;5.598;2023-03-01T09:44:27;5.88;;;3.25;;
18929;SDS011;43305;52.186;5.598;2023-03-01T09:46:57;7.30;;;3.90;;
18929;SDS011;43305;52.186;5.598;2023-03-01T09:49:27;7.35;;;3.72;;
18929;SDS011;43305;52.186;5.598;2023-03-01T09:51:58;9.13;;;4.00;;
18929;SDS011;43305;52.186;5.598;2023-03-01T09:54:29;7.30;;;4.15;;
18929;SDS011;43305;52.186;5.598;2023-03-01T09:56:59;6.60;;;3.75;;
18929;SDS011;43305;52.186;5.598;2023-03-01T09:59:45;8.15;;;4.25;;
18929;SDS011;43305;52.186;5.598;2023-03-01T10:02:27;6.53;;;3.15;;
18929;SDS011;43305;52.186;5.598;2023-03-01T10:05:09;5.90;;;2.90;;
18929;SDS011;43305;52.186;5.598;2023-03-01T10:07:46;7.70;;;2.97;;
18929;SDS011;43305;52.186;5.598;2023-03-01T10:10:23;5.78;;;2.63;;
18929;SDS011;43305;52.186;5.598;2023-03-01T10:12:54;4.50;;;2.22;;
18929;SDS011;43305;52.186;5.598;2023-03-01T10:15:28;5.57;;;2.40;;
18929;SDS011;43305;52.186;5.598;2023-03-01T10:18:00;6.03;;;2.78;;
18929;SDS011;43305;52.186;5.598;2023-03-01T10:20:41;6.63;;;2.80;;
18929;SDS011;43305;52.186;5.598;2023-03-01T10:23:15;5.25;;;2.60;;
18929;SDS011;43305;52.186;5.598;2023-03-01T10:25:56;5.80;;;2.50;;
18929;SDS011;43305;52.186;5.598;2023-03-01T10:28:47;5.13;;;2.10;;
18929;SDS011;43305;52.186;5.598;2023-03-01T10:31:22;4.80;;;2.20;;
18929;SDS011;43305;52.186;5.598;2023-03-01T10:33:53;7.75;;;2.85;;
18929;SDS011;43305;52.186;5.598;2023-03-01T10:36:22;7.22;;;2.47;;
18929;SDS011;43305;52.186;5.598;2023-03-01T10:38:51;5.35;;;2.53;;
18929;SDS011;43305;52.186;5.598;2023-03-01T10:41:20;6.07;;;2.50;;
18929;SDS011;43305;52.186;5.598;2023-03-01T10:43:49;4.40;;;2.10;;
18929;SDS011;43305;52.186;5.598;2023-03-01T10:46:22;3.53;;;2.17;;
18929;SDS011;43305;52.186;5.598;2023-03-01T10:51:45;4.68;;;2.40;;
18929;SDS011;43305;52.186;5.598;2023-03-01T10:54:17;4.55;;;2.00;;
18929;SDS011;43305;52.186;5.598;2023-03-01T10:56:46;7.32;;;2.30;;
18929;SDS011;43305;52.186;5.598;2023-03-01T10:59:26;5.97;;;2.40;;
18929;SDS011;43305;52.186;5.598;2023-03-01T11:02:08;3.75;;;2.00;;
18929;SDS011;43305;52.186;5.598;2023-03-01T11:04:54;4.60;;;2.22;;
18929;SDS011;43305;52.186;5.598;2023-03-01T11:07:24;5.40;;;2.38;;
18929;SDS011;43305;52.186;5.598;2023-03-01T11:09:51;5.28;;;2.53;;
18929;SDS011;43305;52.186;5.598;2023-03-01T11:12:19;5.40;;;2.40;;
18929;SDS011;43305;52.186;5.598;2023-03-01T11:14:51;5.18;;;2.45;;
18929;SDS011;43305;52.186;5.598;2023-03-01T11:17:21;3.78;;;2.42;;
18929;SDS011;43305;52.186;5.598;2023-03-01T11:20:00;5.88;;;2.50;;
18929;SDS011;43305;52.186;5.598;2023-03-01T11:22:32;5.57;;;3.70;;
18929;SDS011;43305;52.186;5.598;2023-03-01T11:25:02;3.92;;;2.60;;
18929;SDS011;43305;52.186;5.598;2023-03-01T11:27:31;6.47;;;2.58;;
18929;SDS011;43305;52.186;5.598;2023-03-01T11:30:00;4.10;;;2.60;;
18929;SDS011;43305;52.186;5.598;2023-03-01T11:32:34;6.28;;;3.10;;
18929;SDS011;43305;52.186;5.598;2023-03-01T11:35:10;6.72;;;2.78;;
18929;SDS011;43305;52.186;5.598;2023-03-01T11:37:54;4.40;;;3.08;;
18929;SDS011;43305;52.186;5.598;2023-03-01T11:40:29;4.15;;;2.35;;
18929;SDS011;43305;52.186;5.598;2023-03-01T11:43:01;5.72;;;3.05;;
18929;SDS011;43305;52.186;5.598;2023-03-01T11:45:39;5.82;;;2.88;;
18929;SDS011;43305;52.186;5.598;2023-03-01T11:48:21;5.75;;;2.60;;
18929;SDS011;43305;52.186;5.598;2023-03-01T11:51:05;3.70;;;2.17;;
18929;SDS011;43305;52.186;5.598;2023-03-01T11:53:45;6.13;;;2.60;;
18929;SDS011;43305;52.186;5.598;2023-03-01T11:56:27;3.92;;;2.30;;
18929;SDS011;43305;52.186;5.598;2023-03-01T11:59:03;3.85;;;2.65;;
18929;SDS011;43305;52.186;5.598;2023-03-01T12:01:51;3.88;;;2.47;;
18929;SDS011;43305;52.186;5.598;2023-03-01T12:04:32;4.47;;;2.78;;
18929;SDS011;43305;52.186;5.598;2023-03-01T12:07:21;5.13;;;2.92;;
18929;SDS011;43305;52.186;5.598;2023-03-01T12:10:02;5.45;;;2.92;;
18929;SDS011;43305;52.186;5.598;2023-03-01T12:15:39;5.93;;;2.70;;
18929;SDS011;43305;52.186;5.598;2023-03-01T12:18:34;5.82;;;2.60;;
18929;SDS011;43305;52.186;5.598;2023-03-01T12:21:14;6.13;;;2.92;;
18929;SDS011;43305;52.186;5.598;2023-03-01T12:26:53;5.20;;;2.55;;
18929;SDS011;43305;52.186;5.598;2023-03-01T12:29:34;6.47;;;2.90;;
18929;SDS011;43305;52.186;5.598;2023-03-01T12:32:15;5.55;;;2.35;;
18929;SDS011;43305;52.186;5.598;2023-03-01T12:34:52;5.82;;;2.70;;
18929;SDS011;43305;52.186;5.598;2023-03-01T12:37:31;6.25;;;2.95;;
18929;SDS011;43305;52.186;5.598;2023-03-01T12:40:21;5.53;;;2.72;;
18929;SDS011;43305;52.186;5.598;2023-03-01T12:43:06;6.57;;;3.00;;
18929;SDS011;43305;52.186;5.598;2023-03-01T12:45:48;5.10;;;2.50;;
18929;SDS011;43305;52.186;5.598;2023-03-01T12:48:31;6.65;;;2.90;;
18929;SDS011;43305;52.186;5.598;2023-03-01T12:51:07;4.85;;;2.55;;
18929;SDS011;43305;52.186;5.598;2023-03-01T12:53:39;10.48;;;2.63;;
18929;SDS011;43305;52.186;5.598;2023-03-01T12:56:08;5.68;;;2.80;;
18929;SDS011;43305;52.186;5.598;2023-03-01T12:58:40;7.93;;;2.90;;
18929;SDS011;43305;52.186;5.598;2023-03-01T13:01:26;8.63;;;2.67;;
18929;SDS011;43305;52.186;5.598;2023-03-01T13:04:17;7.28;;;2.72;;
18929;SDS011;43305;52.186;5.598;2023-03-01T13:07:09;7.72;;;2.95;;
18929;SDS011;43305;52.186;5.598;2023-03-01T13:09:47;4.43;;;2.70;;
18929;SDS011;43305;52.186;5.598;2023-03-01T13:15:30;4.03;;;2.38;;
18929;SDS011;43305;52.186;5.598;2023-03-01T13:17:59;5.18;;;2.70;;
18929;SDS011;43305;52.186;5.598;2023-03-01T13:20:30;5.47;;;2.83;;
18929;SDS011;43305;52.186;5.598;2023-03-01T13:23:04;3.58;;;2.63;;
18929;SDS011;43305;52.186;5.598;2023-03-01T13:25:34;4.00;;;2.70;;
18929;SDS011;43305;52.186;5.598;2023-03-01T13:28:44;5.68;;;2.83;;
18929;SDS011;43305;52.186;5.598;2023-03-01T13:34:43;4.95;;;2.60;;
18929;SDS011;43305;52.186;5.598;2023-03-01T13:37:24;4.97;;;2.72;;
18929;SDS011;43305;52.186;5.598;2023-03-01T13:39:54;4.07;;;2.60;;
18929;SDS011;43305;52.186;5.598;2023-03-01T13:45:20;6.45;;;3.15;;
18929;SDS011;43305;52.186;5.598;2023-03-01T13:47:52;7.65;;;3.30;;
18929;SDS011;43305;52.186;5.598;2023-03-01T13:50:24;5.72;;;3.05;;
18929;SDS011;43305;52.186;5.598;2023-03-01T13:52:54;6.95;;;3.53;;
18929;SDS011;43305;52.186;5.598;2023-03-01T13:55:25;5.25;;;3.58;;
18929;SDS011;43305;52.186;5.598;2023-03-01T13:57:59;6.60;;;3.28;;
18929;SDS011;43305;52.186;5.598;2023-03-01T14:00:33;7.25;;;3.00;;
18929;SDS011;43305;52.186;5.598;2023-03-01T14:03:05;4.28;;;2.72;;
18929;SDS011;43305;52.186;5.598;2023-03-01T14:05:38;5.57;;;2.67;;
18929;SDS011;43305;52.186;5.598;2023-03-01T14:08:18;4.03;;;2.95;;
18929;SDS011;43305;52.186;5.598;2023-03-01T14:10:51;4.78;;;2.92;;
18929;SDS011;43305;52.186;5.598;2023-03-01T14:13:28;6.25;;;3.13;;
18929;SDS011;43305;52.186;5.598;2023-03-01T14:16:12;5.80;;;3.13;;
18929;SDS011;43305;52.186;5.598;2023-03-01T14:18:52;5.20;;;2.92;;
18929;SDS011;43305;52.186;5.598;2023-03-01T14:21:29;5.78;;;2.72;;
18929;SDS011;43305;52.186;5.598;2023-03-01T14:23:56;5.55;;;3.22;;
18929;SDS011;43305;52.186;5.598;2023-03-01T14:26:24;6.40;;;3.03;;
18929;SDS011;43305;52.186;5.598;2023-03-01T14:28:51;8.85;;;3.38;;
18929;SDS011;43305;52.186;5.598;2023-03-01T14:34:16;6.68;;;3.03;;
18929;SDS011;43305;52.186;5.598;2023-03-01T14:36:47;6.25;;;3.08;;
18929;SDS011;43305;52.186;5.598;2023-03-01T14:39:18;6.38;;;3.13;;
18929;SDS011;43305;52.186;5.598;2023-03-01T14:41:50;7.20;;;2.80;;
18929;SDS011;43305;52.186;5.598;2023-03-01T14:44:21;5.57;;;3.10;;
18929;SDS011;43305;52.186;5.598;2023-03-01T14:46:51;7.97;;;4.32;;
18929;SDS011;43305;52.186;5.598;2023-03-01T14:49:20;6.63;;;2.80;;
18929;SDS011;43305;52.186;5.598;2023-03-01T14:51:51;5.38;;;2.83;;
18929;SDS011;43305;52.186;5.598;2023-03-01T14:54:23;6.60;;;2.88;;
18929;SDS011;43305;52.186;5.598;2023-03-01T14:56:52;5.15;;;2.85;;
18929;SDS011;43305;52.186;5.598;2023-03-01T14:59:21;5.45;;;3.03;;
18929;SDS011;43305;52.186;5.598;2023-03-01T15:01:49;7.47;;;2.60;;
18929;SDS011;43305;52.186;5.598;2023-03-01T15:04:17;6.80;;;3.30;;
18929;SDS011;43305;52.186;5.598;2023-03-01T15:06:46;6.50;;;3.08;;
18929;SDS011;43305;52.186;5.598;2023-03-01T15:09:21;5.20;;;2.70;;
18929;SDS011;43305;52.186;5.598;2023-03-01T15:11:48;6.22;;;3.00;;
18929;SDS011;43305;52.186;5.598;2023-03-01T15:14:25;5.75;;;3.22;;
18929;SDS011;43305;52.186;5.598;2023-03-01T15:17:04;5.75;;;3.33;;
18929;SDS011;43305;52.186;5.598;2023-03-01T15:19:39;6.10;;;3.40;;
18929;SDS011;43305;52.186;5.598;2023-03-01T15:22:13;8.73;;;3.90;;
18929;SDS011;43305;52.186;5.598;2023-03-01T15:24:45;10.70;;;3.58;;
18929;SDS011;43305;52.186;5.598;2023-03-01T15:27:16;19.63;;;4.13;;